createdAt,value
2019-06-08T00:04:03.704Z,95268.49
2019-06-08T00:09:05.725Z,95268.49
2019-06-08T00:14:07.731Z,95272.22
2019-06-08T00:19:09.612Z,95268.49
2019-06-08T00:24:11.507Z,95266.88
2019-06-08T00:29:14.151Z,95262.55
2019-06-08T00:34:16.602Z,95256.53
2019-06-08T00:39:18.884Z,95252.91
2019-06-08T00:44:21.281Z,95253.86
2019-06-08T00:49:23.126Z,95259.50
2019-06-08T00:54:25.795Z,95249.10
2019-06-08T00:59:27.837Z,95249.02
2019-06-08T01:04:29.661Z,95247.98
2019-06-08T01:09:31.732Z,95244.96
2019-06-08T01:14:33.690Z,95254.23
2019-06-08T01:19:35.619Z,95251.73
2019-06-08T01:24:37.464Z,95246.01
2019-06-08T01:29:39.313Z,95233.91
2019-06-08T01:34:41.241Z,95232.90
2019-06-08T01:39:43.198Z,95237.64
2019-06-08T01:44:45.112Z,95242.38
2019-06-08T01:49:46.943Z,95237.86
2019-06-08T01:54:48.790Z,95245.54
2019-06-08T01:59:50.663Z,95248.30
2019-06-08T02:04:52.521Z,95246.38
2019-06-08T02:09:54.320Z,95242.02
2019-06-08T02:14:56.219Z,95237.80
2019-06-08T02:19:58.016Z,95241.19
2019-06-08T02:24:59.890Z,95238.88
2019-06-08T02:30:02.144Z,95238.95
2019-06-08T02:35:06.160Z,95242.78
2019-06-08T02:40:08.887Z,95248.10
2019-06-08T02:45:10.812Z,95246.86
2019-06-08T02:50:13.143Z,95248.64
2019-06-08T02:55:15.294Z,95251.26
2019-06-08T03:00:17.462Z,95250.56
2019-06-08T03:05:19.463Z,95254.09
2019-06-08T03:10:21.295Z,95249.37
2019-06-08T03:15:31.616Z,95251.31
2019-06-08T03:20:33.548Z,95244.05
2019-06-08T03:25:45.894Z,95243.38
2019-06-08T03:30:51.444Z,95248.52
2019-06-08T03:35:55.413Z,95255.17
2019-06-08T03:40:47.747Z,95254.08
2019-06-08T03:45:49.584Z,95257.25
2019-06-08T03:50:51.394Z,95264.23
2019-06-08T03:55:53.246Z,95270.61
2019-06-08T04:00:55.160Z,95266.64
2019-06-08T04:05:57.059Z,95267.86
2019-06-08T04:10:58.886Z,95268.84
2019-06-08T04:16:00.784Z,95267.66
2019-06-08T04:21:02.685Z,95273.64
2019-06-08T04:26:04.511Z,95272.99
2019-06-08T04:31:06.346Z,95267.55
2019-06-08T04:36:08.226Z,95269.55
2019-06-08T04:41:10.008Z,95275.94
2019-06-08T04:46:11.912Z,95281.03
2019-06-08T04:51:13.792Z,95281.05
2019-06-08T04:56:15.648Z,95277.99
2019-06-08T05:01:17.429Z,95269.55
2019-06-08T05:06:19.340Z,95273.77
2019-06-08T05:11:21.155Z,95274.70
2019-06-08T05:16:23.109Z,95270.37
2019-06-08T05:21:25.016Z,95267.78
2019-06-08T05:26:28.205Z,95272.25
2019-06-08T05:31:30.070Z,95275.02
2019-06-08T05:36:34.134Z,95271.69
2019-06-08T05:41:36.045Z,95274.92
2019-06-08T05:46:37.995Z,95286.20
2019-06-08T05:51:41.751Z,95282.14
2019-06-08T05:56:43.911Z,95290.26
2019-06-08T06:01:48.553Z,95292.75
2019-06-08T06:06:50.997Z,95293.80
2019-06-08T06:11:54.764Z,95294.27
2019-06-08T06:16:56.857Z,95287.66
2019-06-08T06:21:58.811Z,95285.97
2019-06-08T06:27:00.772Z,95284.06
2019-06-08T06:32:03.083Z,95282.48
2019-06-08T06:37:05.071Z,95287.11
2019-06-08T06:42:07.011Z,95280.21
2019-06-08T06:47:08.890Z,95282.43
2019-06-08T06:52:10.761Z,95278.27
2019-06-08T06:57:12.629Z,95276.74
2019-06-08T07:02:14.712Z,95282.64
2019-06-08T07:07:16.619Z,95285.61
2019-06-08T07:12:18.500Z,95293.38
2019-06-08T07:17:20.423Z,95281.97
2019-06-08T07:22:22.330Z,95281.92
2019-06-08T07:27:25.327Z,95285.25
2019-06-08T07:32:27.178Z,95276.95
2019-06-08T07:37:29.162Z,95274.27
2019-06-08T07:42:30.966Z,95269.85
2019-06-08T07:47:33.772Z,95264.48
2019-06-08T07:52:35.711Z,95263.71
2019-06-08T07:57:37.626Z,95267.22
2019-06-08T08:02:39.468Z,95262.47
2019-06-08T08:07:41.327Z,95272.13
2019-06-08T08:12:43.214Z,95267.55
2019-06-08T08:17:45.168Z,95268.54
2019-06-08T08:22:49.287Z,95267.59
2019-06-08T08:27:51.905Z,95259.98
2019-06-08T08:32:55.145Z,95261.05
2019-06-08T08:38:02.346Z,95262.97
2019-06-08T08:43:01.925Z,95260.68
2019-06-08T08:48:20.393Z,95259.39
2019-06-08T08:53:08.733Z,95252.64
2019-06-08T08:58:10.404Z,95253.43
2019-06-08T09:03:27.806Z,95255.31
2019-06-08T09:08:18.096Z,95250.64
2019-06-08T09:13:19.777Z,95249.45
2019-06-08T09:18:21.802Z,95245.56
2019-06-08T09:23:23.649Z,95243.52
2019-06-08T09:28:25.596Z,95240.16
2019-06-08T09:33:28.809Z,95246.48
2019-06-08T09:38:30.879Z,95235.30
2019-06-08T09:43:32.774Z,95230.28
2019-06-08T09:48:34.789Z,95238.37
2019-06-08T09:53:41.464Z,95243.34
2019-06-08T09:58:41.451Z,95237.23
2019-06-08T10:03:43.216Z,95234.61
2019-06-08T10:08:48.066Z,95224.08
2019-06-08T10:13:49.950Z,95231.02
2019-06-08T10:18:54.863Z,95227.27
2019-06-08T10:24:00.584Z,95224.42
2019-06-08T10:29:03.666Z,95225.23
2019-06-08T10:34:10.682Z,95222.09
2019-06-08T10:39:11.313Z,95223.70
2019-06-08T10:44:14.414Z,95223.13
2019-06-08T10:49:18.923Z,95209.03
2019-06-08T10:54:21.508Z,95204.77
2019-06-08T10:59:23.554Z,95202.57
2019-06-08T11:04:25.721Z,95205.86
2019-06-08T11:09:28.594Z,95203.08
2019-06-08T11:14:30.934Z,95197.49
2019-06-08T11:19:37.521Z,95189.09
2019-06-08T11:24:40.383Z,95186.53
2019-06-08T11:29:42.765Z,95186.76
2019-06-08T11:34:44.706Z,95180.22
2019-06-08T11:39:49.065Z,95172.87
2019-06-08T11:44:53.195Z,95172.87
2019-06-08T11:49:57.526Z,95173.59
2019-06-08T11:55:00.713Z,95177.21
2019-06-08T12:00:21.874Z,95178.08
2019-06-08T12:05:14.317Z,95179.88
2019-06-08T12:10:17.774Z,95182.84
2019-06-08T12:15:21.217Z,95176.37
2019-06-08T12:20:24.414Z,95167.09
2019-06-08T12:25:26.560Z,95174.83
2019-06-08T12:30:29.691Z,95166.34
2019-06-08T12:35:31.890Z,95160.57
2019-06-08T12:40:34.033Z,95162.64
2019-06-08T12:45:38.121Z,95167.52
2019-06-08T12:50:39.901Z,95156.98
2019-06-08T12:55:41.763Z,95168.31
2019-06-08T13:00:48.075Z,95163.42
2019-06-08T13:05:51.208Z,95151.64
2019-06-08T13:10:53.426Z,95155.27
2019-06-08T13:15:57.912Z,95157.50
2019-06-08T13:21:15.280Z,95152.98
2019-06-08T13:26:03.718Z,95148.92
2019-06-08T13:31:07.911Z,95138.98
2019-06-08T13:36:10.343Z,95149.36
2019-06-08T13:41:12.934Z,95141.48
2019-06-08T13:46:15.990Z,95148.43
2019-06-08T13:51:21.008Z,95134.03
2019-06-08T13:56:24.075Z,95140.08
2019-06-08T14:01:30.401Z,95135.12
2019-06-08T14:06:30.307Z,95138.17
2019-06-08T14:11:32.374Z,95138.86
2019-06-08T14:16:34.350Z,95139.67
2019-06-08T14:21:41.595Z,95128.91
2019-06-08T14:26:40.274Z,95129.22
2019-06-08T14:31:42.140Z,95125.67
2019-06-08T14:36:43.782Z,95127.34
2019-06-08T14:41:49.215Z,95132.28
2019-06-08T14:46:49.377Z,95138.83
2019-06-08T14:51:52.011Z,95123.41
2019-06-08T14:56:54.429Z,95119.64
2019-06-08T15:01:56.305Z,95126.44
2019-06-08T15:06:58.665Z,95119.06
2019-06-08T15:12:01.861Z,95121.00
2019-06-08T15:17:03.494Z,95120.20
2019-06-08T15:22:05.411Z,95125.65
2019-06-08T15:27:07.868Z,95114.00
2019-06-08T15:32:12.400Z,95120.55
2019-06-08T15:37:15.364Z,95114.87
2019-06-08T15:42:18.004Z,95121.94
2019-06-08T15:47:22.178Z,95109.46
2019-06-08T15:52:24.470Z,95105.41
2019-06-08T15:57:29.601Z,95107.28
2019-06-08T16:02:31.669Z,95105.94
2019-06-08T16:07:35.622Z,95105.69
2019-06-08T16:12:41.124Z,95110.00
2019-06-08T16:17:44.050Z,95109.73
2019-06-08T16:22:47.585Z,95104.88
2019-06-08T16:27:49.981Z,95101.59
2019-06-08T16:32:51.939Z,95107.28
2019-06-08T16:37:54.998Z,95118.64
2019-06-08T16:42:56.995Z,95113.23
2019-06-08T16:48:00.083Z,95117.78
2019-06-08T16:53:01.976Z,95113.70
2019-06-08T16:58:04.017Z,95118.55
2019-06-08T17:03:06.054Z,95121.47
2019-06-08T17:08:08.215Z,95128.20
2019-06-08T17:13:11.572Z,95132.22
2019-06-08T17:18:13.987Z,95142.52
2019-06-08T17:23:16.748Z,95137.06
2019-06-08T17:28:18.679Z,95138.59
2019-06-08T17:33:20.721Z,95138.55
2019-06-08T17:38:22.484Z,95130.98
2019-06-08T17:43:24.450Z,95131.91
2019-06-08T17:48:26.384Z,95126.80
2019-06-08T17:53:28.332Z,95122.97
2019-06-08T17:58:33.016Z,95128.29
2019-06-08T18:03:36.095Z,95136.61
2019-06-08T18:08:40.942Z,95141.27
2019-06-08T18:13:44.156Z,95148.99
2019-06-08T18:18:48.049Z,95141.19
2019-06-08T18:23:50.470Z,95146.50
2019-06-08T18:28:55.070Z,95159.31
2019-06-08T18:33:57.847Z,95162.42
2019-06-08T18:39:00.586Z,95187.76
2019-06-08T18:44:02.484Z,95202.94
2019-06-08T18:49:08.070Z,95218.52
2019-06-08T18:54:14.707Z,95214.08
2019-06-08T18:59:14.023Z,95226.39
2019-06-08T19:04:16.279Z,95235.16
2019-06-08T19:09:18.252Z,95247.50
2019-06-08T19:14:20.822Z,95254.73
2019-06-08T19:19:22.985Z,95253.30
2019-06-08T19:24:24.834Z,95258.00
2019-06-08T19:29:27.942Z,95268.97
2019-06-08T19:34:33.244Z,95274.63
2019-06-08T19:39:36.272Z,95280.08
2019-06-08T19:44:41.606Z,95284.86
2019-06-08T19:49:42.833Z,95289.05
2019-06-08T19:54:47.075Z,95308.97
2019-06-08T19:59:49.643Z,95299.73
2019-06-08T20:04:53.105Z,95293.53
2019-06-08T20:09:57.122Z,95305.58
2019-06-08T20:14:59.344Z,95313.59
2019-06-08T20:20:04.613Z,95309.51
2019-06-08T20:25:10.604Z,95300.61
2019-06-08T20:30:12.491Z,95301.91
2019-06-08T20:35:17.314Z,95310.09
2019-06-08T20:40:18.707Z,95300.86
2019-06-08T20:45:20.642Z,95301.18
2019-06-08T20:50:22.491Z,95306.39
2019-06-08T20:55:24.422Z,95305.14
2019-06-08T21:00:26.338Z,95310.47
2019-06-08T21:05:28.233Z,95317.75
2019-06-08T21:10:30.109Z,95317.02
2019-06-08T21:15:31.980Z,95320.05
2019-06-08T21:20:33.830Z,95322.47
2019-06-08T21:25:37.264Z,95319.47
2019-06-08T21:30:39.451Z,95312.92
2019-06-08T21:35:41.303Z,95308.32
2019-06-08T21:40:43.259Z,95319.65
2019-06-08T21:45:47.369Z,95303.45
2019-06-08T21:50:51.366Z,95302.15
2019-06-08T21:55:54.171Z,95297.17
2019-06-08T22:00:59.141Z,95298.14
2019-06-08T22:06:00.246Z,95303.66
2019-06-08T22:11:02.684Z,95302.03
2019-06-08T22:16:04.537Z,95300.08
2019-06-08T22:21:08.120Z,95299.90
2019-06-08T22:26:11.387Z,95286.97
2019-06-08T22:31:13.244Z,95283.39
2019-06-08T22:36:15.052Z,95291.92
2019-06-08T22:41:17.375Z,95291.92
2019-06-08T22:46:19.223Z,95286.06
2019-06-08T22:51:21.078Z,95296.69
2019-06-08T22:56:22.914Z,95291.61
2019-06-08T23:01:24.806Z,95281.11
2019-06-08T23:06:28.128Z,95278.50
2019-06-08T23:11:30.152Z,95280.42
2019-06-08T23:16:31.953Z,95284.67
2019-06-08T23:21:33.765Z,95284.67
2019-06-08T23:26:37.267Z,95279.41
2019-06-08T23:31:39.306Z,95287.59
2019-06-08T23:36:51.763Z,95272.62
2019-06-08T23:41:44.955Z,95284.14
2019-06-08T23:46:47.683Z,95289.45
2019-06-08T23:51:49.623Z,95291.24
2019-06-08T23:56:51.443Z,95293.08
